createdAt,value
2022-09-07T00:00:06.374Z,30.9
2022-09-07T00:01:08.864Z,31.1
2022-09-07T00:02:11.330Z,31.1
2022-09-07T00:03:13.357Z,31.1
2022-09-07T00:04:16.652Z,31
2022-09-07T00:05:19.559Z,30.8
2022-09-07T00:06:21.774Z,30.9
2022-09-07T00:07:24.255Z,30.9
2022-09-07T00:08:26.452Z,30.9
2022-09-07T00:09:29.585Z,31.1
2022-09-07T00:10:32.069Z,31
2022-09-07T00:11:34.546Z,30.9
2022-09-07T00:12:37.016Z,31.2
2022-09-07T00:13:39.511Z,30.9
2022-09-07T00:14:41.425Z,30.9
2022-09-07T00:15:43.640Z,31
2022-09-07T00:16:46.200Z,31
2022-09-07T00:17:48.672Z,30.9
2022-09-07T00:18:50.847Z,30.8
2022-09-07T00:19:53.326Z,30.9
2022-09-07T00:20:55.508Z,31.1
2022-09-07T00:21:57.983Z,30.9
2022-09-07T00:23:00.176Z,31
2022-09-07T00:24:02.648Z,31
2022-09-07T00:25:04.857Z,30.9
2022-09-07T00:26:07.069Z,30.9
2022-09-07T00:27:09.271Z,31.3
2022-09-07T00:28:11.755Z,30.8
2022-09-07T00:29:14.227Z,31
2022-09-07T00:30:16.706Z,31.1
2022-09-07T00:31:19.234Z,30.9
2022-09-07T00:32:22.182Z,31.1
2022-09-07T00:33:24.655Z,31.1
2022-09-07T00:34:26.581Z,31.3
2022-09-07T00:35:28.788Z,31.3
2022-09-07T00:36:31.258Z,31
2022-09-07T00:37:33.465Z,31.1
2022-09-07T00:38:35.955Z,31
2022-09-07T00:39:38.205Z,30.8
2022-09-07T00:40:40.809Z,31.3
2022-09-07T00:41:43.282Z,31.1
2022-09-07T00:42:45.776Z,31.1
2022-09-07T00:43:47.957Z,31.1
2022-09-07T00:44:50.427Z,31.2
2022-09-07T00:45:52.909Z,31.2
2022-09-07T00:46:55.475Z,31.2
2022-09-07T00:47:58.071Z,31.1
2022-09-07T00:49:00.248Z,31.2
2022-09-07T00:50:02.723Z,31
2022-09-07T00:51:04.929Z,31.3
2022-09-07T00:52:06.837Z,31.1
2022-09-07T00:53:09.313Z,31.3
2022-09-07T00:54:11.790Z,31.3
2022-09-07T00:55:14.262Z,30.9
2022-09-07T00:56:16.460Z,31.2
2022-09-07T00:57:18.929Z,31.1
2022-09-07T00:58:21.128Z,31.2
2022-09-07T00:59:23.597Z,31.2
2022-09-07T01:00:26.154Z,31.2
2022-09-07T01:01:28.449Z,31.3
2022-09-07T01:02:31.760Z,31.1
2022-09-07T01:03:34.924Z,31
2022-09-07T01:04:37.127Z,31.1
2022-09-07T01:05:39.315Z,31.1
2022-09-07T01:06:41.789Z,31
2022-09-07T01:07:44.260Z,31.3
2022-09-07T01:08:46.471Z,31.2
2022-09-07T01:09:48.673Z,31
2022-09-07T01:10:50.878Z,31.2
2022-09-07T01:11:53.352Z,31
2022-09-07T01:12:55.831Z,31.2
2022-09-07T01:13:58.304Z,31
2022-09-07T01:15:00.778Z,31.4
2022-09-07T01:16:03.322Z,31.3
2022-09-07T01:17:06.041Z,31.1
2022-09-07T01:18:08.241Z,31.2
2022-09-07T01:19:10.175Z,31.1
2022-09-07T01:20:12.667Z,31
2022-09-07T01:21:15.142Z,31.2
2022-09-07T01:22:17.610Z,31.2
2022-09-07T01:23:20.103Z,31
2022-09-07T01:24:22.562Z,31.2
2022-09-07T01:25:24.248Z,31.1
2022-09-07T01:26:26.442Z,31.2
2022-09-07T01:27:28.641Z,31.5
2022-09-07T01:28:31.310Z,31.3
2022-09-07T01:29:34.071Z,31.3
2022-09-07T01:30:36.538Z,31.2
2022-09-07T01:31:38.753Z,31.2
2022-09-07T01:32:41.230Z,31.2
2022-09-07T01:33:43.702Z,31.3
2022-09-07T01:34:46.168Z,31.1
2022-09-07T01:35:48.645Z,31.3
2022-09-07T01:36:51.129Z,30.9
2022-09-07T01:37:56.842Z,31.2
2022-09-07T01:38:58.314Z,31.3
2022-09-07T01:40:00.590Z,31.4
2022-09-07T01:41:03.475Z,31.1
2022-09-07T01:42:05.668Z,31.2
2022-09-07T01:43:08.150Z,31.3
2022-09-07T01:44:10.614Z,31.5
2022-09-07T01:45:13.099Z,31.4
2022-09-07T01:46:15.067Z,31
2022-09-07T01:47:17.912Z,31.2
2022-09-07T01:48:20.143Z,31.1
2022-09-07T01:49:22.612Z,31.4
2022-09-07T01:50:25.100Z,31.3
2022-09-07T01:51:27.600Z,31.3
2022-09-07T01:52:30.086Z,31.4
2022-09-07T01:53:32.566Z,31.3
2022-09-07T01:54:34.460Z,31.3
2022-09-07T01:55:36.678Z,31.5
2022-09-07T01:56:38.870Z,31.2
2022-09-07T01:57:41.055Z,31.3
2022-09-07T01:58:43.520Z,31.2
2022-09-07T01:59:45.718Z,31.2
2022-09-07T02:00:47.930Z,31.5
2022-09-07T02:01:50.506Z,31.3
2022-09-07T02:02:52.924Z,31.3
2022-09-07T02:03:55.772Z,31.3
2022-09-07T02:04:57.943Z,31.4
2022-09-07T02:06:00.142Z,31.3
2022-09-07T02:07:02.630Z,31.3
2022-09-07T02:08:05.114Z,31.3
2022-09-07T02:09:07.588Z,31.3
2022-09-07T02:10:09.493Z,31.3
2022-09-07T02:11:12.007Z,31.4
2022-09-07T02:12:13.917Z,31.3
2022-09-07T02:13:16.121Z,31.2
2022-09-07T02:14:18.590Z,31.3
2022-09-07T02:15:21.072Z,31.3
2022-09-07T02:16:23.610Z,31.2
2022-09-07T02:17:25.974Z,31.2
2022-09-07T02:18:28.219Z,31.1
2022-09-07T02:19:30.890Z,31.3
2022-09-07T02:20:33.092Z,31.2
2022-09-07T02:21:35.287Z,31.3
2022-09-07T02:22:37.773Z,31.3
2022-09-07T02:23:40.236Z,31.3
2022-09-07T02:24:42.460Z,31.2
2022-09-07T02:25:44.968Z,31.2
2022-09-07T02:26:47.157Z,31.4
2022-09-07T02:27:49.628Z,31.2
2022-09-07T02:28:52.101Z,31.2
2022-09-07T02:29:54.569Z,31.4
2022-09-07T02:30:57.074Z,31.3
2022-09-07T02:31:59.896Z,31.3
2022-09-07T02:33:02.364Z,31.2
2022-09-07T02:34:04.852Z,31.4
2022-09-07T02:35:07.326Z,31.1
2022-09-07T02:36:09.805Z,31.3
2022-09-07T02:37:12.278Z,31.4
2022-09-07T02:38:14.498Z,31.2
2022-09-07T02:39:16.689Z,31.2
2022-09-07T02:40:18.889Z,31.4
2022-09-07T02:41:21.366Z,31.2
2022-09-07T02:42:23.840Z,31.3
2022-09-07T02:43:26.032Z,31.4
2022-09-07T02:44:28.229Z,31.2
2022-09-07T02:45:30.143Z,31.2
2022-09-07T02:46:32.671Z,31.3
2022-09-07T02:47:35.515Z,31.4
2022-09-07T02:48:37.438Z,31.1
2022-09-07T02:49:39.906Z,31.2
2022-09-07T02:50:42.386Z,31.4
2022-09-07T02:51:44.598Z,31.3
2022-09-07T02:52:47.146Z,31.2
2022-09-07T02:53:49.612Z,31.3
2022-09-07T02:54:51.819Z,31.2
2022-09-07T02:55:54.290Z,31.3
2022-09-07T02:56:56.500Z,31.3
2022-09-07T02:57:58.394Z,31.4
2022-09-07T02:59:00.602Z,31.2
2022-09-07T03:00:02.809Z,31.3
2022-09-07T03:01:05.083Z,31.3
2022-09-07T03:02:07.614Z,31.4
2022-09-07T03:03:10.065Z,31.4
2022-09-07T03:04:12.536Z,31.3
2022-09-07T03:05:15.016Z,31.4
2022-09-07T03:06:17.495Z,31.5
2022-09-07T03:07:19.693Z,31.4
2022-09-07T03:08:22.157Z,31.2
2022-09-07T03:09:24.769Z,31.2
2022-09-07T03:10:27.265Z,31.1
2022-09-07T03:11:29.791Z,30.8
2022-09-07T03:12:32.360Z,30.9
2022-09-07T03:13:34.544Z,31.1
2022-09-07T03:14:36.754Z,30.9
2022-09-07T03:15:39.299Z,31
2022-09-07T03:16:42.217Z,30.9
2022-09-07T03:17:44.710Z,30.8
2022-09-07T03:18:47.252Z,31.1
2022-09-07T03:19:49.754Z,30.7
2022-09-07T03:20:52.228Z,30.9
2022-09-07T03:21:54.425Z,30.8
2022-09-07T03:22:56.904Z,30.8
2022-09-07T03:23:59.376Z,31
2022-09-07T03:25:01.589Z,30.9
2022-09-07T03:26:04.073Z,30.6
2022-09-07T03:27:06.552Z,30.8
2022-09-07T03:28:08.742Z,30.7
2022-09-07T03:29:10.980Z,30.7
2022-09-07T03:30:13.482Z,30.9
2022-09-07T03:31:16.041Z,30.6
2022-09-07T03:32:18.613Z,30.7
2022-09-07T03:33:21.088Z,30.8
2022-09-07T03:34:23.267Z,30.8
2022-09-07T03:35:25.754Z,30.5
2022-09-07T03:36:27.924Z,30.7
2022-09-07T03:37:30.395Z,30.6
2022-09-07T03:38:32.918Z,30.5
2022-09-07T03:39:35.459Z,30.5
2022-09-07T03:40:38.235Z,30.7
2022-09-07T03:41:40.443Z,30.6
2022-09-07T03:42:42.385Z,30.6
2022-09-07T03:43:44.559Z,30.5
2022-09-07T03:44:46.767Z,30.6
2022-09-07T03:45:48.718Z,30.7
2022-09-07T03:46:51.227Z,30.4
2022-09-07T03:47:53.707Z,30.4
2022-09-07T03:48:56.187Z,30.5
2022-09-07T03:49:58.380Z,30.4
2022-09-07T03:51:00.591Z,30.6
2022-09-07T03:52:03.110Z,30.4
2022-09-07T03:53:05.572Z,30.6
2022-09-07T03:54:08.048Z,30.4
2022-09-07T03:55:10.255Z,30.5
2022-09-07T03:56:12.483Z,30.7
2022-09-07T03:57:14.686Z,30.5
2022-09-07T03:58:17.162Z,30.4
2022-09-07T03:59:19.630Z,30.4
2022-09-07T04:00:22.102Z,30.5
2022-09-07T04:01:24.346Z,30.3
2022-09-07T04:02:27.018Z,30.5
2022-09-07T04:03:29.532Z,30.4
2022-09-07T04:04:30.882Z,30.3
2022-09-07T04:05:33.078Z,30.2
2022-09-07T04:06:35.562Z,30.5
2022-09-07T04:07:37.481Z,30.4
2022-09-07T04:08:39.684Z,30.3
2022-09-07T04:09:42.154Z,30.5
2022-09-07T04:10:43.808Z,30.6
2022-09-07T04:11:46.038Z,30.4
2022-09-07T04:12:47.942Z,30.4
2022-09-07T04:13:50.412Z,30.3
2022-09-07T04:14:52.308Z,30.4
2022-09-07T04:15:54.496Z,30.3
2022-09-07T04:16:56.517Z,30.4
2022-09-07T04:17:59.329Z,30.4
2022-09-07T04:19:01.807Z,30.4
2022-09-07T04:20:04.300Z,30.5
2022-09-07T04:21:06.496Z,30.5
2022-09-07T04:22:08.702Z,30.3
2022-09-07T04:23:10.904Z,30.5
2022-09-07T04:24:13.118Z,30.2
2022-09-07T04:25:15.592Z,30.4
2022-09-07T04:26:18.064Z,30.5
2022-09-07T04:27:20.542Z,30.4
2022-09-07T04:28:22.737Z,30.3
2022-09-07T04:29:24.961Z,30.3
2022-09-07T04:30:26.884Z,30.3
2022-09-07T04:31:29.667Z,30.4
2022-09-07T04:32:32.177Z,30.3
2022-09-07T04:33:34.666Z,30.3
2022-09-07T04:34:36.866Z,30.4
2022-09-07T04:35:39.352Z,30.4
2022-09-07T04:36:41.555Z,30.2
2022-09-07T04:37:44.026Z,30.5
2022-09-07T04:38:46.229Z,30.4
2022-09-07T04:39:48.746Z,30.4
2022-09-07T04:40:51.325Z,30.2
2022-09-07T04:41:53.534Z,30.5
2022-09-07T04:42:55.740Z,30.4
2022-09-07T04:43:58.235Z,30.4
2022-09-07T04:45:00.727Z,30.4
2022-09-07T04:46:03.236Z,30.4
2022-09-07T04:47:05.755Z,30.4
2022-09-07T04:48:07.946Z,30.4
2022-09-07T04:49:09.885Z,30.6
2022-09-07T04:50:12.099Z,30.7
2022-09-07T04:51:14.289Z,30.3
2022-09-07T04:52:16.762Z,30.2
2022-09-07T04:53:19.234Z,30.4
2022-09-07T04:54:21.433Z,30.3
2022-09-07T04:55:23.901Z,30.5
2022-09-07T04:56:26.376Z,30.3
2022-09-07T04:57:28.315Z,30.4
2022-09-07T04:58:30.873Z,30.2
2022-09-07T04:59:33.208Z,30.4
2022-09-07T05:00:35.684Z,30.3
2022-09-07T05:01:38.196Z,30.2
2022-09-07T05:02:41.215Z,30.2
2022-09-07T05:03:43.925Z,30.3
2022-09-07T05:04:46.156Z,30.4
2022-09-07T05:05:48.635Z,30.3
2022-09-07T05:06:51.106Z,30.2
2022-09-07T05:07:53.586Z,30.4
2022-09-07T05:08:55.763Z,30.2
2022-09-07T05:09:58.238Z,30.4
2022-09-07T05:11:00.728Z,30.2
2022-09-07T05:12:02.929Z,30.1
2022-09-07T05:13:05.130Z,30.2
2022-09-07T05:14:07.328Z,30.3
2022-09-07T05:15:09.539Z,30.2
2022-09-07T05:16:12.056Z,30.3
2022-09-07T05:17:14.910Z,30.2
2022-09-07T05:18:17.101Z,30.1
2022-09-07T05:19:19.330Z,30.2
2022-09-07T05:20:21.799Z,30.1
2022-09-07T05:21:24.270Z,30.4
2022-09-07T05:22:26.200Z,30.3
2022-09-07T05:23:28.694Z,30.3
2022-09-07T05:24:31.176Z,30.2
2022-09-07T05:25:33.663Z,30.2
2022-09-07T05:26:36.145Z,30.3
2022-09-07T05:27:38.635Z,30.3
2022-09-07T05:28:40.811Z,30.2
2022-09-07T05:31:53.301Z,30.2
2022-09-07T05:32:55.796Z,30.1
2022-09-07T05:35:03.294Z,30.5
2022-09-07T05:36:05.244Z,30.2
2022-09-07T05:37:07.730Z,30.3
2022-09-07T05:38:09.932Z,30.2
2022-09-07T05:39:12.399Z,30.2
2022-09-07T05:40:14.148Z,30.1
2022-09-07T05:41:17.099Z,30.2
2022-09-07T05:42:18.892Z,30.3
2022-09-07T05:43:21.363Z,30.1
2022-09-07T05:44:53.458Z,30.2
2022-09-07T05:45:28.593Z,30.2
2022-09-07T05:46:31.032Z,30.3
2022-09-07T05:47:33.530Z,30.1
2022-09-07T05:48:36.031Z,30.2
2022-09-07T05:49:38.213Z,30.3
2022-09-07T05:50:40.747Z,30.2
2022-09-07T05:51:43.231Z,30.2
2022-09-07T05:52:45.720Z,30.2
2022-09-07T05:53:47.651Z,30.3
2022-09-07T05:54:49.872Z,30.1
2022-09-07T05:55:56.068Z,30.3
2022-09-07T05:56:58.259Z,30.2
2022-09-07T05:58:00.484Z,30.1
2022-09-07T05:59:02.415Z,30
2022-09-07T06:00:04.644Z,30.1
2022-09-07T06:01:06.845Z,30.3
2022-09-07T06:02:09.139Z,30.3
2022-09-07T06:03:12.239Z,30
2022-09-07T06:04:15.225Z,30.3
2022-09-07T06:05:17.701Z,30
2022-09-07T06:06:19.901Z,30.2
2022-09-07T06:07:23.105Z,30.4
2022-09-07T06:08:25.732Z,30.1
2022-09-07T06:09:30.458Z,30.2
2022-09-07T06:10:48.663Z,30
2022-09-07T06:11:38.281Z,30.1
2022-09-07T06:12:40.191Z,30
2022-09-07T06:13:45.676Z,30.3
2022-09-07T06:14:48.144Z,30.3
2022-09-07T06:15:50.344Z,30.4
2022-09-07T06:16:52.841Z,30.2
2022-09-07T06:17:55.667Z,30.2
2022-09-07T06:18:57.855Z,30.2
2022-09-07T06:20:00.034Z,30.2
2022-09-07T06:21:02.233Z,30.2
2022-09-07T06:22:04.428Z,30.1
2022-09-07T06:23:06.903Z,30.2
2022-09-07T06:24:09.109Z,30.2
2022-09-07T06:25:11.585Z,30.4
2022-09-07T06:26:14.053Z,30.3
2022-09-07T06:27:16.248Z,30.1
2022-09-07T06:28:18.730Z,30.2
2022-09-07T06:29:21.216Z,30.3
2022-09-07T06:30:23.704Z,30.3
2022-09-07T06:31:26.227Z,30.3
2022-09-07T06:32:45.484Z,30.2
2022-09-07T06:33:35.093Z,30.3
2022-09-07T06:34:37.698Z,30.2
2022-09-07T06:35:40.200Z,30.2
2022-09-07T06:36:42.685Z,30.2
2022-09-07T06:37:45.162Z,30.2
2022-09-07T06:38:47.631Z,30.1
2022-09-07T06:39:49.873Z,30.2
2022-09-07T06:42:59.975Z,30.2
2022-09-07T06:44:02.475Z,30.2
2022-09-07T06:45:04.668Z,30.1
2022-09-07T06:47:11.861Z,30.1
2022-09-07T06:48:14.067Z,30.2
2022-09-07T06:49:16.569Z,30.2
2022-09-07T06:50:18.773Z,30.2
2022-09-07T06:51:21.265Z,30.2
2022-09-07T06:52:23.847Z,30
2022-09-07T06:53:34.137Z,30.2
2022-09-07T06:55:01.689Z,30.2
2022-09-07T06:55:36.750Z,30.2
2022-09-07T06:56:39.233Z,30
2022-09-07T06:57:41.435Z,30.1
2022-09-07T06:58:43.915Z,30.1
2022-09-07T06:59:46.114Z,30.3
2022-09-07T07:00:48.406Z,30.2
2022-09-07T07:01:50.999Z,30.3
2022-09-07T07:02:53.560Z,30.5
2022-09-07T07:03:55.888Z,30.1
2022-09-07T07:04:58.098Z,30.3
2022-09-07T07:06:00.060Z,30.2
2022-09-07T07:07:02.531Z,30.2
2022-09-07T07:08:05.034Z,30.1
2022-09-07T07:09:07.260Z,30.4
2022-09-07T07:10:09.501Z,30.3
2022-09-07T07:11:11.710Z,30.2
2022-09-07T07:12:14.211Z,30.2
2022-09-07T07:14:38.651Z,30.3
2022-09-07T07:15:42.055Z,30.2
2022-09-07T07:16:44.299Z,30.2
2022-09-07T07:17:51.983Z,30.2
2022-09-07T07:18:52.124Z,30.4
2022-09-07T07:19:54.593Z,30.4
2022-09-07T07:20:56.499Z,30.2
2022-09-07T07:22:18.544Z,30.3
2022-09-07T07:23:03.715Z,30.2
2022-09-07T07:24:08.152Z,30.3
2022-09-07T07:25:10.468Z,30.2
2022-09-07T07:26:12.954Z,30
2022-09-07T07:27:15.451Z,30.4
2022-09-07T07:29:38.069Z,30.1
2022-09-07T07:30:40.565Z,30.2
2022-09-07T07:31:42.786Z,30.1
2022-09-07T07:32:45.261Z,30.2
2022-09-07T07:33:47.795Z,30.2
2022-09-07T07:34:50.724Z,30
2022-09-07T07:35:53.200Z,30.2
2022-09-07T07:36:55.403Z,30.2
2022-09-07T07:39:03.044Z,30.3
2022-09-07T07:42:16.135Z,30.1
2022-09-07T07:43:18.617Z,30
2022-09-07T07:44:21.097Z,30.1
2022-09-07T07:46:28.645Z,30.1
2022-09-07T07:47:31.514Z,30.1
2022-09-07T07:48:33.738Z,30.2
2022-09-07T07:49:35.975Z,30.2
2022-09-07T07:50:38.538Z,30
2022-09-07T07:53:51.007Z,30.2
2022-09-07T07:54:53.250Z,30.3
2022-09-07T07:55:55.204Z,30.1
2022-09-07T07:56:57.432Z,30
2022-09-07T07:57:59.930Z,30.1
2022-09-07T07:59:02.415Z,30.1
2022-09-07T08:00:04.619Z,30.1
2022-09-07T08:01:07.123Z,30.1
2022-09-07T08:02:09.982Z,30.1
2022-09-07T08:03:12.388Z,30.3
2022-09-07T08:04:14.593Z,30
2022-09-07T08:05:17.099Z,30
2022-09-07T08:06:19.653Z,30.1
2022-09-07T08:07:21.877Z,29.9
2022-09-07T08:08:24.394Z,30.3
2022-09-07T08:09:26.889Z,30.1
2022-09-07T08:10:29.382Z,30
2022-09-07T08:11:31.853Z,30.1
2022-09-07T08:12:33.775Z,30
2022-09-07T08:13:35.980Z,30.1
2022-09-07T08:14:38.466Z,30.1
2022-09-07T08:15:40.963Z,30.2
2022-09-07T08:16:43.227Z,30.2
2022-09-07T08:17:45.954Z,30.2
2022-09-07T08:18:48.438Z,30.1
2022-09-07T08:19:50.913Z,30.1
2022-09-07T08:20:52.865Z,30.2
2022-09-07T08:21:55.513Z,30.2
2022-09-07T08:22:57.724Z,30.2
2022-09-07T08:23:59.666Z,30.2
2022-09-07T08:25:01.705Z,30
2022-09-07T08:26:04.230Z,30.2
2022-09-07T08:27:06.708Z,30.2
2022-09-07T08:28:08.641Z,30.2
2022-09-07T08:29:11.170Z,30.2
2022-09-07T08:30:13.376Z,30.1
2022-09-07T08:31:15.652Z,30
2022-09-07T08:32:18.638Z,30.3
2022-09-07T08:33:21.116Z,30.2
2022-09-07T08:34:23.296Z,30.2
2022-09-07T08:35:25.783Z,30.1
2022-09-07T08:36:28.009Z,30.2
2022-09-07T08:37:30.753Z,30.2
2022-09-07T08:38:33.296Z,30.3
2022-09-07T08:39:34.954Z,30
2022-09-07T08:40:37.509Z,30.1
2022-09-07T08:41:39.737Z,30.2
2022-09-07T08:42:41.947Z,30.1
2022-09-07T08:43:48.465Z,30.1
2022-09-07T08:44:49.176Z,30.4
2022-09-07T08:45:51.689Z,30.1
2022-09-07T08:46:54.192Z,30
2022-09-07T08:47:56.888Z,30.2
2022-09-07T08:48:59.070Z,30.3
2022-09-07T08:50:01.294Z,30.2
2022-09-07T08:51:03.522Z,30.1
2022-09-07T08:52:06.023Z,30.5
2022-09-07T08:53:08.561Z,30.2
2022-09-07T08:54:11.047Z,30.2
2022-09-07T08:55:13.530Z,30.4
2022-09-07T08:56:15.438Z,30.3
2022-09-07T08:57:21.084Z,30.2
2022-09-07T08:58:47.519Z,30.3
2022-09-07T08:59:27.654Z,30.2
2022-09-07T09:00:30.077Z,30.3
2022-09-07T09:01:33.165Z,30.2
2022-09-07T09:02:43.347Z,30.3
2022-09-07T09:05:18.379Z,30.4
2022-09-07T09:05:53.294Z,30.2
2022-09-07T09:06:56.494Z,30.3
2022-09-07T09:08:00.037Z,30.2
2022-09-07T09:09:02.706Z,30.2
2022-09-07T09:10:05.177Z,30.3
2022-09-07T09:11:07.391Z,30.2
2022-09-07T09:12:09.868Z,30.4
2022-09-07T09:13:12.068Z,30.1
2022-09-07T09:14:14.242Z,30.4
2022-09-07T09:15:16.484Z,30.1
2022-09-07T09:16:19.102Z,30.3
2022-09-07T09:17:22.099Z,30.4
2022-09-07T09:18:24.700Z,30.2
2022-09-07T09:19:27.271Z,30.2
2022-09-07T09:20:29.468Z,30.2
2022-09-07T09:21:31.393Z,30.4
2022-09-07T09:22:33.294Z,30.3
2022-09-07T09:23:35.821Z,30.2
2022-09-07T09:24:38.491Z,30.4
2022-09-07T09:25:40.984Z,30.1
2022-09-07T09:26:43.243Z,30.1
2022-09-07T09:27:45.957Z,30.1
2022-09-07T09:28:47.874Z,30.4
2022-09-07T09:29:50.374Z,30.3
2022-09-07T09:30:52.337Z,30.2
2022-09-07T09:31:54.766Z,30.2
2022-09-07T09:32:57.240Z,30.3
2022-09-07T09:33:59.734Z,30.2
2022-09-07T09:35:01.934Z,30.3
2022-09-07T09:36:04.450Z,30.2
2022-09-07T09:37:06.930Z,30.3
2022-09-07T09:38:09.149Z,30.3
2022-09-07T09:39:11.091Z,30.2
2022-09-07T09:40:13.775Z,30.2
2022-09-07T09:41:16.581Z,30.4
2022-09-07T09:42:18.775Z,30.3
2022-09-07T09:43:21.253Z,30.4
2022-09-07T09:44:23.750Z,30
2022-09-07T09:45:26.230Z,30.3
2022-09-07T09:46:29.418Z,30.3
2022-09-07T09:47:31.722Z,30.3
2022-09-07T09:48:34.956Z,30.2
2022-09-07T09:49:36.617Z,30.3
2022-09-07T09:52:51.758Z,30.1
2022-09-07T09:53:54.105Z,30.3
2022-09-07T09:55:00.187Z,30.3
2022-09-07T09:56:01.580Z,30.2
2022-09-07T09:57:04.138Z,30.3
2022-09-07T10:00:21.407Z,30.2
2022-09-07T10:01:22.232Z,30.1
2022-09-07T10:04:39.628Z,30.4
2022-09-07T10:05:42.122Z,30.4
2022-09-07T10:06:44.596Z,30.2
2022-09-07T10:07:47.084Z,30.2
2022-09-07T10:08:49.280Z,30.2
2022-09-07T10:09:51.756Z,30.2
2022-09-07T10:10:54.251Z,30.3
2022-09-07T10:12:11.860Z,30.2
2022-09-07T10:13:01.416Z,30.5
2022-09-07T10:14:03.747Z,30.3
2022-09-07T10:15:05.954Z,30.4
2022-09-07T10:16:08.481Z,30.1
2022-09-07T10:17:11.116Z,30.3
2022-09-07T10:18:13.604Z,30.2
2022-09-07T10:19:16.084Z,30.4
2022-09-07T10:20:18.010Z,30.2
2022-09-07T10:21:20.497Z,30.2
2022-09-07T10:22:22.967Z,30.2
2022-09-07T10:23:25.171Z,30.2
2022-09-07T10:24:27.649Z,30.3
2022-09-07T10:25:30.129Z,30.2
2022-09-07T10:26:32.352Z,30.3
2022-09-07T10:27:34.567Z,30.3
2022-09-07T10:29:07.082Z,30.4
2022-09-07T10:29:41.793Z,30.4
2022-09-07T10:30:44.152Z,30.4
2022-09-07T10:31:46.941Z,30.5
2022-09-07T10:32:49.159Z,30.3
2022-09-07T10:34:56.769Z,30.2
2022-09-07T10:35:58.765Z,30.4
2022-09-07T10:37:01.262Z,30.3
2022-09-07T10:38:03.451Z,30.3
2022-09-07T10:39:05.936Z,30.2
2022-09-07T10:40:07.877Z,30.3
2022-09-07T10:41:10.129Z,30.3
2022-09-07T10:42:12.361Z,30.5
2022-09-07T10:43:22.341Z,30.4
2022-09-07T10:44:19.833Z,30.3
2022-09-07T10:45:22.308Z,30.4
2022-09-07T10:47:29.974Z,30.4
2022-09-07T10:48:32.802Z,30.2
2022-09-07T10:49:35.342Z,30.4
2022-09-07T10:50:38.036Z,30.3
2022-09-07T10:51:40.221Z,30.3
2022-09-07T10:52:42.151Z,30.5
2022-09-07T10:53:44.874Z,30.4
2022-09-07T10:54:52.708Z,30.3
2022-09-07T10:55:55.321Z,30.3
2022-09-07T10:56:57.815Z,30.2
2022-09-07T10:58:00.344Z,30.5
2022-09-07T10:59:03.326Z,30.4
2022-09-07T11:00:07.786Z,30.5
2022-09-07T11:01:12.744Z,30.3
2022-09-07T11:02:15.716Z,30.3
2022-09-07T11:03:26.057Z,30.5
2022-09-07T11:04:23.524Z,30.4
2022-09-07T11:05:27.678Z,30.3
2022-09-07T11:06:30.510Z,30.5
2022-09-07T11:07:32.443Z,30.4
2022-09-07T11:09:15.373Z,30.4
2022-09-07T11:09:39.385Z,30.6
2022-09-07T11:10:41.617Z,30.5
2022-09-07T11:12:48.815Z,30.3
2022-09-07T11:14:11.785Z,30.6
2022-09-07T11:14:56.036Z,30.5
2022-09-07T11:15:58.604Z,30.4
2022-09-07T11:17:01.663Z,30.5
2022-09-07T11:18:04.672Z,30.2
2022-09-07T11:20:11.624Z,30.3
2022-09-07T11:21:13.862Z,30.5
2022-09-07T11:22:20.773Z,30.5
2022-09-07T11:23:22.979Z,30.7
2022-09-07T11:24:25.193Z,30.4
2022-09-07T11:25:30.317Z,30.3
2022-09-07T11:26:32.121Z,30.6
2022-09-07T11:27:34.637Z,30.4
2022-09-07T11:28:37.141Z,30.5
2022-09-07T11:29:39.364Z,30.3
2022-09-07T11:30:41.744Z,30.4
2022-09-07T11:31:44.561Z,30.4
2022-09-07T11:32:47.055Z,30.3
2022-09-07T11:34:54.669Z,30.3
2022-09-07T11:35:57.014Z,30.4
2022-09-07T11:36:59.501Z,30.4
2022-09-07T11:38:01.708Z,30.3
2022-09-07T11:39:04.190Z,30.3
2022-09-07T11:40:06.857Z,30.5
2022-09-07T11:41:10.004Z,30.5
2022-09-07T11:43:17.251Z,30.5
2022-09-07T11:44:19.758Z,30.4
2022-09-07T11:45:22.892Z,30.5
2022-09-07T11:46:25.447Z,30.4
2022-09-07T11:47:28.059Z,30.4
2022-09-07T11:48:30.779Z,30.4
2022-09-07T11:49:35.294Z,30.4
2022-09-07T11:50:37.810Z,30.6
2022-09-07T11:51:40.011Z,30.5
2022-09-07T11:52:42.211Z,30.7
2022-09-07T11:53:44.422Z,30.6
2022-09-07T11:54:46.639Z,30.5
2022-09-07T11:55:48.840Z,30.4
2022-09-07T11:56:51.314Z,30.3
2022-09-07T11:57:55.556Z,30.4
2022-09-07T11:58:58.240Z,30.6
2022-09-07T12:00:00.718Z,30.4
2022-09-07T12:01:03.224Z,30.3
2022-09-07T12:02:05.762Z,30.4
2022-09-07T12:03:08.734Z,30.3
2022-09-07T12:04:15.278Z,30.4
2022-09-07T12:05:16.384Z,30.5
2022-09-07T12:06:18.933Z,30.6
2022-09-07T12:07:21.423Z,30.6
2022-09-07T12:08:23.909Z,30.6
2022-09-07T12:09:26.199Z,30.4
2022-09-07T12:10:28.668Z,30.3
2022-09-07T12:11:31.156Z,30.3
2022-09-07T12:12:33.359Z,30.4
2022-09-07T12:13:35.590Z,30.5
2022-09-07T12:14:37.788Z,30.4
2022-09-07T12:15:40.027Z,30.4
2022-09-07T12:16:42.881Z,30.4
2022-09-07T12:17:45.361Z,30.4
2022-09-07T12:18:47.891Z,30.5
2022-09-07T12:19:50.157Z,30.6
2022-09-07T12:20:52.740Z,30.3
2022-09-07T12:21:55.323Z,30.4
2022-09-07T12:23:00.999Z,30.4
2022-09-07T12:24:02.517Z,30.3
2022-09-07T12:25:04.727Z,30.2
2022-09-07T12:26:06.913Z,30.1
2022-09-07T12:27:09.122Z,30.5
2022-09-07T12:28:11.329Z,30.4
2022-09-07T12:29:13.275Z,30.3
2022-09-07T12:30:15.791Z,30.3
2022-09-07T12:31:18.345Z,30.3
2022-09-07T12:33:26.917Z,30.3
2022-09-07T12:34:29.418Z,30.4
2022-09-07T12:35:31.899Z,30.3
2022-09-07T12:36:33.813Z,30.4
2022-09-07T12:37:36.507Z,30.2
2022-09-07T12:38:38.430Z,30.3
2022-09-07T12:39:40.947Z,30.3
2022-09-07T12:40:43.465Z,30.3
2022-09-07T12:41:46.947Z,30.4
2022-09-07T12:42:50.667Z,30.3
2022-09-07T12:43:53.166Z,30.4
2022-09-07T12:44:55.655Z,30.3
2022-09-07T12:45:58.173Z,30.1
2022-09-07T12:47:00.955Z,30.2
2022-09-07T12:48:04.488Z,30.1
2022-09-07T12:49:06.850Z,30.2
2022-09-07T12:50:10.055Z,30.2
2022-09-07T12:51:12.655Z,30.2
2022-09-07T12:52:16.656Z,30.3
2022-09-07T12:53:19.248Z,30.1
2022-09-07T12:54:21.764Z,30.3
2022-09-07T12:55:28.239Z,30.2
2022-09-07T12:56:29.231Z,30.2
2022-09-07T12:57:31.713Z,30.3
2022-09-07T12:58:33.967Z,30.1
2022-09-07T12:59:36.147Z,30.5
2022-09-07T13:00:38.649Z,30.4
2022-09-07T13:01:42.155Z,30.1
2022-09-07T13:02:45.724Z,30.4
2022-09-07T13:03:50.236Z,30.4
2022-09-07T13:04:54.189Z,30.2
2022-09-07T13:05:56.155Z,30.2
2022-09-07T13:07:02.233Z,30.4
2022-09-07T13:08:08.594Z,30.3
2022-09-07T13:09:08.631Z,30.2
2022-09-07T13:10:11.319Z,30.4
2022-09-07T13:11:13.525Z,30.2
2022-09-07T13:12:52.764Z,30.1
2022-09-07T13:14:01.867Z,30.3
2022-09-07T13:14:25.997Z,30.2
2022-09-07T13:15:28.565Z,30.2
2022-09-07T13:16:31.615Z,30.4
2022-09-07T13:17:37.320Z,30.1
2022-09-07T13:18:39.524Z,30.1
2022-09-07T13:19:42.036Z,30.3
2022-09-07T13:20:44.236Z,30.3
2022-09-07T13:21:46.704Z,30.1
2022-09-07T13:22:48.605Z,30.3
2022-09-07T13:23:51.085Z,30.2
2022-09-07T13:24:54.731Z,30.4
2022-09-07T13:25:57.108Z,30.2
2022-09-07T13:26:59.585Z,30.4
2022-09-07T13:28:01.784Z,30.2
2022-09-07T13:29:04.329Z,30.2
2022-09-07T13:30:07.260Z,30.2
2022-09-07T13:31:09.922Z,30.1
2022-09-07T13:32:13.685Z,30.4
2022-09-07T13:33:16.919Z,30.2
2022-09-07T13:34:19.406Z,30.4
2022-09-07T13:35:21.649Z,30.3
2022-09-07T13:36:24.123Z,30.2
2022-09-07T13:38:30.517Z,30.1
2022-09-07T13:39:32.773Z,30.2
2022-09-07T13:40:35.543Z,30.4
2022-09-07T13:41:38.189Z,30.3
2022-09-07T13:42:40.412Z,30.4
2022-09-07T13:43:42.661Z,30.2
2022-09-07T13:44:45.147Z,30.1
2022-09-07T13:45:47.422Z,30.2
2022-09-07T13:46:50.007Z,30.4
2022-09-07T13:47:52.487Z,30.3
2022-09-07T13:48:54.988Z,30.5
2022-09-07T13:49:57.533Z,30.5
2022-09-07T13:51:00.091Z,30.4
2022-09-07T13:52:02.287Z,30.4
2022-09-07T13:53:04.764Z,30.4
2022-09-07T13:54:07.244Z,30.6
2022-09-07T13:55:09.726Z,30.3
2022-09-07T13:56:12.202Z,30.4
2022-09-07T13:57:14.551Z,30.4
2022-09-07T13:58:17.030Z,30.3
2022-09-07T13:59:19.240Z,30.3
2022-09-07T14:00:21.424Z,30.6
2022-09-07T14:01:23.670Z,30.6
2022-09-07T14:02:26.480Z,30.4
2022-09-07T14:03:28.951Z,30.6
2022-09-07T14:04:31.791Z,30.6
2022-09-07T14:05:34.301Z,30.5
2022-09-07T14:06:36.529Z,30.6
2022-09-07T14:07:38.996Z,30.5
2022-09-07T14:08:41.496Z,30.4
2022-09-07T14:09:43.693Z,30.4
2022-09-07T14:10:45.637Z,30.6
2022-09-07T14:11:48.121Z,30.5
2022-09-07T14:12:50.676Z,30.4
2022-09-07T14:13:53.214Z,30.4
2022-09-07T14:14:55.701Z,30.5
2022-09-07T14:15:57.943Z,30.5
2022-09-07T14:17:00.513Z,30.2
2022-09-07T14:18:03.190Z,30.2
2022-09-07T14:19:05.387Z,30.4
2022-09-07T14:20:07.863Z,30.5
2022-09-07T14:21:10.130Z,30.4
2022-09-07T14:22:12.343Z,30.3
2022-09-07T14:23:14.270Z,30.4
2022-09-07T14:24:16.753Z,30.3
2022-09-07T14:25:18.962Z,30.3
2022-09-07T14:26:21.168Z,30.4
2022-09-07T14:27:23.694Z,30.3